Time;durP1;ratioP1;P1;durP2;ratioP2;P2;SDS_P1;SDS_P2;PMS_P1;PMS_P2;Temp;Humidity;BMP_temperature;BMP_pressure;BME280_temperature;BME280_humidity;BME280_pressure;Samples;Min_cycle;Max_cycle;Signal;HPM_P1;HPM_P2
2022/07/12 00:02:03;;;;;;;3.70;2.80;;;8.90;99.90;;;;;;5073141;28;20051;-67
2022/07/12 00:04:30;;;;;;;5.82;3.20;;;8.90;99.90;;;;;;5073190;28;20027;-79
2022/07/12 00:06:58;;;;;;;3.38;2.95;;;9.00;99.90;;;;;;5073324;28;20032;-78
2022/07/12 00:09:26;;;;;;;5.00;3.00;;;9.10;99.90;;;;;;5073148;28;20021;-67
2022/07/12 00:11:55;;;;;;;6.47;3.10;;;9.10;99.90;;;;;;5073123;28;20025;-67
2022/07/12 00:14:22;;;;;;;4.65;3.28;;;9.20;99.90;;;;;;5073032;28;20028;-67
2022/07/12 00:16:51;;;;;;;3.58;2.75;;;9.20;99.90;;;;;;5073201;28;20101;-67
2022/07/12 00:19:19;;;;;;;4.50;2.60;;;9.30;99.90;;;;;;5073284;28;20425;-67
2022/07/12 00:21:47;;;;;;;4.88;2.90;;;9.30;99.90;;;;;;5073336;28;20020;-67
2022/07/12 00:24:15;;;;;;;4.55;2.30;;;9.40;99.90;;;;;;5055066;28;20403;-67
2022/07/12 00:26:43;;;;;;;5.07;2.70;;;9.50;99.90;;;;;;5072828;28;20475;-67
2022/07/12 00:29:10;;;;;;;4.28;2.53;;;9.50;99.90;;;;;;5073183;28;20025;-67
2022/07/12 00:31:38;;;;;;;9.77;3.35;;;9.60;99.90;;;;;;5072938;28;20107;-67
2022/07/12 00:34:06;;;;;;;4.45;1.92;;;9.60;99.90;;;;;;5072898;28;20029;-67
2022/07/12 00:36:34;;;;;;;4.45;2.33;;;9.70;99.90;;;;;;5072780;28;20103;-67
2022/07/12 00:39:01;;;;;;;2.28;1.95;;;9.70;99.90;;;;;;5054897;28;20399;-67
2022/07/12 00:41:29;;;;;;;4.95;2.42;;;9.80;99.90;;;;;;5072835;28;20032;-78
2022/07/12 00:43:57;;;;;;;3.50;2.42;;;9.80;99.90;;;;;;5072675;28;20028;-67
2022/07/12 00:46:24;;;;;;;3.25;1.80;;;9.90;99.90;;;;;;5072863;28;20051;-67
2022/07/12 00:48:53;;;;;;;3.10;1.83;;;9.90;99.90;;;;;;5073009;28;20491;-67
2022/07/12 00:51:21;;;;;;;4.38;1.77;;;9.90;99.90;;;;;;5072850;28;20024;-67
2022/07/12 00:53:50;;;;;;;3.65;2.28;;;10.00;99.90;;;;;;5072295;28;20016;-67
2022/07/12 00:56:18;;;;;;;2.35;1.80;;;10.00;99.90;;;;;;5072685;28;20029;-67
2022/07/12 00:58:46;;;;;;;4.15;2.10;;;10.10;99.90;;;;;;5072844;28;20024;-67
2022/07/12 01:01:14;;;;;;;4.65;1.80;;;10.20;99.90;;;;;;5072810;28;20036;-67
2022/07/12 01:03:43;;;;;;;3.13;1.73;;;10.20;99.90;;;;;;5076453;28;20032;-68
2022/07/12 01:06:11;;;;;;;2.80;1.60;;;10.20;99.90;;;;;;5076336;28;20021;-67
2022/07/12 01:08:39;;;;;;;2.33;1.30;;;10.30;99.90;;;;;;5076360;28;20024;-78
2022/07/12 01:11:08;;;;;;;3.17;1.63;;;10.30;99.90;;;;;;5076194;28;20028;-78
2022/07/12 01:13:37;;;;;;;2.30;1.40;;;10.40;99.90;;;;;;5076078;28;20021;-78
2022/07/12 01:16:08;;;;;;;4.25;1.63;;;10.40;99.90;;;;;;5076316;28;20021;-67
2022/07/12 01:18:40;;;;;;;2.78;1.30;;;10.40;99.90;;;;;;5076172;28;20467;-68
2022/07/12 01:21:09;;;;;;;6.40;1.20;;;10.50;99.90;;;;;;5076137;28;20017;-68
2022/07/12 01:23:39;;;;;;;7.05;1.00;;;10.60;99.90;;;;;;5076013;28;20086;-68
2022/07/12 01:26:07;;;;;;;6.70;1.30;;;10.60;99.90;;;;;;5076048;28;20029;-67
2022/07/12 01:28:36;;;;;;;4.38;1.35;;;10.60;99.90;;;;;;5076171;28;20035;-68
2022/07/12 01:31:04;;;;;;;3.03;0.98;;;10.60;99.90;;;;;;5075757;28;20044;-67
2022/07/12 01:33:33;;;;;;;2.03;1.13;;;10.70;99.90;;;;;;5075523;28;20028;-67
2022/07/12 01:36:02;;;;;;;2.33;1.23;;;10.70;99.90;;;;;;5075692;28;20028;-78
2022/07/12 01:38:29;;;;;;;2.50;0.88;;;10.70;99.90;;;;;;5075892;28;20032;-68
2022/07/12 01:40:58;;;;;;;1.95;0.95;;;10.80;99.90;;;;;;5075970;28;20082;-67
2022/07/12 01:43:26;;;;;;;1.88;1.08;;;10.80;99.90;;;;;;5075589;28;20045;-78
2022/07/12 01:45:54;;;;;;;8.15;1.60;;;10.80;99.90;;;;;;5075717;28;20025;-78
2022/07/12 01:48:21;;;;;;;1.88;1.08;;;10.90;99.90;;;;;;5075652;28;20059;-68
2022/07/12 01:50:49;;;;;;;4.20;0.90;;;10.90;99.90;;;;;;5075692;28;20017;-68
2022/07/12 01:53:17;;;;;;;3.55;0.82;;;10.90;99.90;;;;;;5075257;28;20035;-68
2022/07/12 01:55:45;;;;;;;2.15;0.90;;;10.90;99.90;;;;;;5075221;28;20035;-75
2022/07/12 01:58:14;;;;;;;2.83;1.13;;;11.00;99.90;;;;;;5075193;28;20047;-68
2022/07/12 02:00:46;;;;;;;4.50;0.93;;;11.00;99.90;;;;;;5075093;28;20135;-68
2022/07/12 02:03:14;;;;;;;5.45;1.13;;;11.00;99.90;;;;;;5075399;28;20103;-68
2022/07/12 02:05:42;;;;;;;1.35;0.77;;;11.00;99.90;;;;;;5075317;28;20025;-68
2022/07/12 02:08:13;;;;;;;8.32;1.20;;;11.00;99.90;;;;;;5075200;28;20021;-79
2022/07/12 02:10:42;;;;;;;1.05;0.65;;;11.10;99.90;;;;;;5075178;28;20052;-68
2022/07/12 02:13:10;;;;;;;1.67;0.73;;;11.10;99.90;;;;;;5074411;28;20497;-78
2022/07/12 02:15:38;;;;;;;2.08;0.68;;;11.10;99.90;;;;;;5075022;28;20040;-69
2022/07/12 02:18:05;;;;;;;3.75;0.80;;;11.10;99.90;;;;;;5075145;28;20078;-68
2022/07/12 02:20:33;;;;;;;2.50;1.10;;;11.20;99.90;;;;;;5074931;28;20030;-76
2022/07/12 02:23:01;;;;;;;2.08;0.50;;;11.20;99.90;;;;;;5075069;28;20056;-78
2022/07/12 02:25:28;;;;;;;2.80;0.52;;;11.30;99.90;;;;;;5074945;28;20021;-71
2022/07/12 02:27:56;;;;;;;1.52;0.60;;;11.30;99.90;;;;;;5074873;28;20074;-68
2022/07/12 02:30:24;;;;;;;1.27;0.90;;;11.40;99.90;;;;;;5074780;28;20020;-68
2022/07/12 02:32:51;;;;;;;6.32;0.88;;;11.40;99.90;;;;;;5074602;28;20025;-69
2022/07/12 02:35:19;;;;;;;2.13;0.90;;;11.40;99.90;;;;;;5074538;28;20451;-68
2022/07/12 02:37:47;;;;;;;1.40;0.57;;;11.50;99.90;;;;;;5074584;28;20043;-68
2022/07/12 02:43:17;;;;;;;0.65;0.50;;;11.60;99.90;;;;;;5040629;28;20037;-67
2022/07/12 02:45:44;;;;;;;4.75;0.88;;;11.70;99.90;;;;;;5074523;28;20016;-68
2022/07/12 02:48:12;;;;;;;1.70;0.70;;;11.70;99.90;;;;;;5074412;28;20024;-69
2022/07/12 02:50:40;;;;;;;1.23;0.40;;;11.80;99.90;;;;;;5074437;28;20027;-67
2022/07/12 02:53:10;;;;;;;2.20;0.65;;;11.80;99.90;;;;;;5074165;28;20020;-68
2022/07/12 02:55:38;;;;;;;0.52;0.40;;;11.90;99.90;;;;;;5074164;28;20024;-68
2022/07/12 02:58:06;;;;;;;4.25;0.57;;;11.90;99.90;;;;;;5074063;28;20087;-79
2022/07/12 03:00:34;;;;;;;0.30;0.30;;;11.90;99.90;;;;;;5074104;28;20041;-74
2022/07/12 03:03:02;;;;;;;0.40;0.30;;;12.00;99.90;;;;;;5074125;28;20024;-68
2022/07/12 03:05:30;;;;;;;0.57;0.30;;;12.10;99.90;;;;;;5074009;28;20025;-68
2022/07/12 03:07:58;;;;;;;0.93;0.32;;;12.20;99.90;;;;;;5056100;28;20448;-68
2022/07/12 03:10:26;;;;;;;0.60;0.40;;;12.20;99.90;;;;;;5074003;28;20023;-79
2022/07/12 03:12:53;;;;;;;0.80;0.30;;;12.20;99.90;;;;;;5073906;28;20038;-68
2022/07/12 03:15:21;;;;;;;0.80;0.50;;;12.20;99.90;;;;;;5073967;28;20053;-68
2022/07/12 03:17:49;;;;;;;0.73;0.50;;;12.30;99.90;;;;;;5073818;28;20035;-68
2022/07/12 03:20:17;;;;;;;0.95;0.60;;;12.30;99.90;;;;;;5073595;28;20483;-70
2022/07/12 03:22:48;;;;;;;1.75;0.50;;;12.30;99.90;;;;;;5073693;28;20020;-70
2022/07/12 03:25:16;;;;;;;0.80;0.50;;;12.40;99.90;;;;;;5073105;28;20039;-68
2022/07/12 03:27:44;;;;;;;0.93;0.38;;;12.40;99.90;;;;;;5073542;28;20035;-69
2022/07/12 03:30:13;;;;;;;2.20;0.40;;;12.40;99.90;;;;;;5074243;28;20391;-76
2022/07/12 03:32:41;;;;;;;0.70;0.50;;;12.40;99.90;;;;;;5073420;28;20028;-80
2022/07/12 03:35:09;;;;;;;0.40;0.30;;;12.50;99.90;;;;;;5073593;28;20028;-68
2022/07/12 03:37:45;;;;;;;0.25;0.25;;;12.50;99.90;;;;;;5073719;28;20035;-68
2022/07/12 03:40:14;;;;;;;1.40;0.40;;;12.40;99.90;;;;;;5073952;28;20418;-68
2022/07/12 03:42:42;;;;;;;0.28;0.28;;;12.40;99.90;;;;;;5073631;28;20039;-80
2022/07/12 03:45:11;;;;;;;1.65;0.45;;;12.40;99.90;;;;;;5073454;28;20021;-68
2022/07/12 03:47:39;;;;;;;0.63;0.52;;;12.40;99.90;;;;;;5073181;28;20035;-81
2022/07/12 03:50:10;;;;;;;3.35;0.45;;;12.50;99.90;;;;;;5073184;28;20020;-68
2022/07/12 03:52:38;;;;;;;0.75;0.60;;;12.50;99.90;;;;;;5073172;28;20107;-81
2022/07/12 03:55:07;;;;;;;0.90;0.38;;;12.60;99.90;;;;;;5073345;28;20021;-68
2022/07/12 03:57:34;;;;;;;0.63;0.40;;;12.60;99.90;;;;;;5073387;28;20043;-68
2022/07/12 04:00:04;;;;;;;0.40;0.32;;;12.60;99.90;;;;;;5073221;28;20025;-68
2022/07/12 04:02:32;;;;;;;3.10;0.40;;;12.60;99.90;;;;;;5073112;28;20402;-68
2022/07/12 04:05:00;;;;;;;0.55;0.40;;;12.40;99.90;;;;;;5073489;28;20047;-81
2022/07/12 04:07:28;;;;;;;0.85;0.30;;;12.40;99.90;;;;;;5073250;28;20039;-68
2022/07/12 04:09:55;;;;;;;1.00;0.50;;;12.50;99.90;;;;;;5073352;28;20074;-68
2022/07/12 04:12:23;;;;;;;0.68;0.32;;;12.50;99.90;;;;;;5073168;28;20052;-68
2022/07/12 04:14:51;;;;;;;0.40;0.35;;;12.50;99.90;;;;;;5073341;28;20017;-68
2022/07/12 04:17:19;;;;;;;0.65;0.35;;;12.60;99.90;;;;;;5073035;28;20043;-68
2022/07/12 04:19:46;;;;;;;0.40;0.40;;;12.60;99.90;;;;;;5072970;28;20090;-68
2022/07/12 04:22:14;;;;;;;0.20;0.20;;;12.60;99.90;;;;;;5073089;28;20028;-68
2022/07/12 04:24:42;;;;;;;4.38;0.50;;;12.50;99.90;;;;;;5073021;28;20052;-81
2022/07/12 04:27:09;;;;;;;1.35;0.63;;;12.50;99.90;;;;;;5073093;28;20115;-80
2022/07/12 04:29:37;;;;;;;1.60;0.85;;;12.50;99.90;;;;;;5073087;28;20020;-68
2022/07/12 04:32:05;;;;;;;1.45;0.60;;;12.60;99.90;;;;;;5072953;28;20033;-68
2022/07/12 04:34:32;;;;;;;1.02;0.50;;;12.50;99.90;;;;;;5072750;28;20383;-68
2022/07/12 04:37:00;;;;;;;0.85;0.45;;;12.50;99.90;;;;;;5076170;28;20032;-79
2022/07/12 04:39:28;;;;;;;2.97;0.50;;;12.40;99.90;;;;;;5076716;28;20028;-80
2022/07/12 04:41:56;;;;;;;1.00;0.60;;;12.40;99.90;;;;;;5076694;28;20028;-81
2022/07/12 04:44:23;;;;;;;1.10;0.60;;;12.60;99.90;;;;;;5076745;28;20580;-68
2022/07/12 04:46:51;;;;;;;1.60;0.50;;;12.50;99.90;;;;;;5076516;28;20030;-68
2022/07/12 04:49:19;;;;;;;0.80;0.45;;;12.50;99.90;;;;;;5076755;28;20467;-68
2022/07/12 04:51:46;;;;;;;3.30;0.40;;;12.40;99.90;;;;;;5076459;28;20491;-68
2022/07/12 04:54:14;;;;;;;1.88;0.40;;;12.40;99.90;;;;;;5076482;28;20062;-68
2022/07/12 04:56:43;;;;;;;0.63;0.40;;;12.30;99.90;;;;;;5076475;28;20033;-69
2022/07/12 04:59:10;;;;;;;0.60;0.50;;;12.40;99.90;;;;;;5076455;28;20151;-68
2022/07/12 05:01:39;;;;;;;1.98;0.52;;;12.40;99.90;;;;;;5076083;28;20049;-68
2022/07/12 05:04:07;;;;;;;0.43;0.38;;;12.40;99.90;;;;;;5076144;28;20093;-68
2022/07/12 05:06:35;;;;;;;0.77;0.77;;;12.50;99.90;;;;;;5076390;28;20109;-68
2022/07/12 05:09:03;;;;;;;1.35;0.50;;;12.50;99.90;;;;;;5076334;28;20020;-68
2022/07/12 05:11:32;;;;;;;1.52;0.75;;;12.40;99.90;;;;;;5076232;28;20165;-68
2022/07/12 05:13:59;;;;;;;0.47;0.35;;;12.40;99.90;;;;;;5075897;28;20035;-67
2022/07/12 05:16:28;;;;;;;0.47;0.38;;;12.30;99.90;;;;;;5076190;28;20025;-80
2022/07/12 05:18:56;;;;;;;0.50;0.40;;;12.30;99.90;;;;;;5076276;28;20028;-67
2022/07/12 05:21:24;;;;;;;0.75;0.28;;;12.30;99.90;;;;;;5076251;28;20557;-68
2022/07/12 05:23:51;;;;;;;0.50;0.38;;;12.40;99.90;;;;;;5075940;28;20126;-68
2022/07/12 05:26:19;;;;;;;0.68;0.35;;;12.30;99.90;;;;;;5075774;28;20021;-67
2022/07/12 05:28:47;;;;;;;0.35;0.35;;;12.20;99.90;;;;;;5076127;28;20032;-68
2022/07/12 05:31:14;;;;;;;1.17;0.40;;;12.30;99.90;;;;;;5075805;28;20028;-68
2022/07/12 05:33:42;;;;;;;0.82;0.45;;;12.30;99.90;;;;;;5075833;28;20028;-68
2022/07/12 05:36:10;;;;;;;0.80;0.30;;;12.40;99.90;;;;;;5075773;28;20028;-68
2022/07/12 05:38:37;;;;;;;0.30;0.30;;;12.30;99.90;;;;;;5075881;28;20033;-71
2022/07/12 05:41:05;;;;;;;0.50;0.40;;;12.20;99.90;;;;;;5075624;28;20099;-67
2022/07/12 05:43:33;;;;;;;0.90;0.75;;;12.20;99.90;;;;;;5075711;28;20025;-68
2022/07/12 05:46:01;;;;;;;0.47;0.35;;;12.20;99.90;;;;;;5075754;28;20016;-67
2022/07/12 05:48:29;;;;;;;1.58;0.75;;;12.20;99.90;;;;;;5075005;28;20021;-72
2022/07/12 05:53:21;;;;;;;0.50;0.47;;;12.30;99.90;;;;;;5075392;28;20025;-80
2022/07/12 05:53:44;;;;;;;1.45;0.47;;;12.30;99.90;;;;;;5075232;28;20059;-67
2022/07/12 05:56:12;;;;;;;0.63;0.52;;;12.30;99.90;;;;;;5075519;28;20077;-67
2022/07/12 05:58:40;;;;;;;1.23;0.60;;;12.20;99.90;;;;;;5075632;28;20062;-67
2022/07/12 06:01:08;;;;;;;4.88;0.50;;;12.20;99.90;;;;;;5075241;28;20036;-67
2022/07/12 06:03:36;;;;;;;1.02;0.68;;;12.10;99.90;;;;;;5075433;28;20506;-67
2022/07/12 06:06:03;;;;;;;1.67;0.88;;;12.00;99.90;;;;;;5075808;28;20077;-67
2022/07/12 06:08:31;;;;;;;1.90;0.60;;;12.00;99.90;;;;;;5075160;28;20040;-67
2022/07/12 06:10:59;;;;;;;2.20;0.80;;;11.80;99.90;;;;;;5075196;28;20470;-67
2022/07/12 06:13:27;;;;;;;1.08;0.60;;;11.70;99.90;;;;;;5075124;28;20025;-67
2022/07/12 06:15:59;;;;;;;3.30;1.35;;;11.60;99.90;;;;;;5075296;28;20016;-67
2022/07/12 06:18:28;;;;;;;1.30;0.80;;;11.50;99.90;;;;;;5075209;28;20116;-67
2022/07/12 06:20:55;;;;;;;0.88;0.70;;;11.40;99.90;;;;;;5075048;28;20497;-67
2022/07/12 06:23:23;;;;;;;2.38;0.70;;;11.40;99.90;;;;;;5074974;28;20029;-67
2022/07/12 06:25:51;;;;;;;0.45;0.40;;;11.30;99.90;;;;;;5074996;28;20095;-71
2022/07/12 06:28:19;;;;;;;1.08;0.40;;;11.20;99.90;;;;;;5075027;28;20025;-67
2022/07/12 06:30:46;;;;;;;0.70;0.38;;;11.20;99.90;;;;;;5074972;28;20024;-67
2022/07/12 06:33:14;;;;;;;1.17;0.70;;;11.20;99.90;;;;;;5074450;28;20020;-67
2022/07/12 06:35:41;;;;;;;0.63;0.57;;;11.10;99.90;;;;;;5074619;28;20111;-67
2022/07/12 06:38:09;;;;;;;0.80;0.40;;;11.00;99.90;;;;;;5074223;28;20042;-67
2022/07/12 06:40:36;;;;;;;0.47;0.30;;;11.00;99.90;;;;;;5074544;28;20108;-67
2022/07/12 06:43:08;;;;;;;2.35;0.80;;;11.00;99.90;;;;;;5074609;28;20025;-67
2022/07/12 06:45:36;;;;;;;1.98;0.60;;;11.00;99.90;;;;;;5074596;28;20479;-79
2022/07/12 06:48:04;;;;;;;0.68;0.55;;;10.90;99.90;;;;;;5074271;28;20027;-69
2022/07/12 06:50:32;;;;;;;1.30;0.60;;;10.80;99.90;;;;;;5074262;28;20033;-78
2022/07/12 06:52:59;;;;;;;1.95;0.50;;;10.80;99.90;;;;;;5074296;28;20089;-67
2022/07/12 06:55:27;;;;;;;0.70;0.50;;;10.90;99.90;;;;;;5074468;28;20016;-67
2022/07/12 06:57:54;;;;;;;0.60;0.50;;;10.90;99.90;;;;;;5074140;28;20410;-67
2022/07/12 07:00:22;;;;;;;1.25;0.57;;;10.90;99.90;;;;;;5073957;28;20079;-71
2022/07/12 07:02:49;;;;;;;1.55;0.75;;;10.80;99.90;;;;;;5074042;28;20032;-67
2022/07/12 07:05:17;;;;;;;1.17;0.70;;;10.80;99.90;;;;;;5074183;28;20024;-79
2022/07/12 07:07:45;;;;;;;1.95;0.68;;;10.80;99.90;;;;;;5074051;28;20058;-67
2022/07/12 07:10:12;;;;;;;1.58;0.50;;;10.80;99.90;;;;;;5074027;28;20137;-69
2022/07/12 07:12:39;;;;;;;1.67;0.70;;;10.80;99.90;;;;;;5073645;28;20032;-67
2022/07/12 07:15:07;;;;;;;3.65;0.70;;;10.70;99.90;;;;;;5074416;28;20360;-67
2022/07/12 07:17:35;;;;;;;0.50;0.50;;;10.70;99.90;;;;;;5073937;28;20036;-79
2022/07/12 07:20:05;;;;;;;0.40;0.40;;;10.60;99.90;;;;;;5073857;28;20126;-67
2022/07/12 07:22:33;;;;;;;1.23;0.70;;;10.60;99.90;;;;;;5073717;28;20056;-70
2022/07/12 07:25:00;;;;;;;1.52;0.70;;;10.60;99.90;;;;;;5073990;28;20021;-80
2022/07/12 07:27:28;;;;;;;0.75;0.60;;;10.50;99.90;;;;;;5073750;28;20509;-67
2022/07/12 07:32:40;;;;;;;1.17;0.60;;;10.50;99.90;;;;;;5073928;28;20039;-80
2022/07/12 07:35:08;;;;;;;0.80;0.55;;;10.50;99.90;;;;;;5073693;28;20261;-80
2022/07/12 07:37:35;;;;;;;2.95;0.77;;;10.40;99.90;;;;;;5073306;28;20047;-80
2022/07/12 07:40:03;;;;;;;2.13;0.80;;;10.40;99.90;;;;;;5073531;28;20028;-67
2022/07/12 07:42:30;;;;;;;0.52;0.43;;;10.40;99.90;;;;;;5073462;28;20029;-73
2022/07/12 07:44:57;;;;;;;2.85;0.90;;;10.40;99.90;;;;;;5073592;28;20031;-67
2022/07/12 07:47:25;;;;;;;1.30;0.77;;;10.40;99.90;;;;;;5073519;28;20433;-67
2022/07/12 07:49:56;;;;;;;1.27;0.60;;;10.40;99.90;;;;;;5073294;28;20036;-67
2022/07/12 07:52:23;;;;;;;0.80;0.75;;;10.40;99.90;;;;;;5073457;28;20082;-68
2022/07/12 07:54:50;;;;;;;0.82;0.52;;;10.30;99.90;;;;;;5073482;28;20104;-70
2022/07/12 07:57:18;;;;;;;1.70;0.70;;;10.30;99.90;;;;;;5073473;28;20044;-68
2022/07/12 07:59:45;;;;;;;0.80;0.50;;;10.20;99.90;;;;;;5073500;28;20486;-79
2022/07/12 08:02:12;;;;;;;1.17;0.60;;;10.20;99.90;;;;;;5073131;28;20433;-74
2022/07/12 08:04:40;;;;;;;0.90;0.60;;;10.20;99.90;;;;;;5073466;28;20017;-67
2022/07/12 08:07:07;;;;;;;4.72;0.95;;;10.20;99.90;;;;;;5073529;28;20475;-72
2022/07/12 08:09:34;;;;;;;2.08;1.17;;;10.20;99.90;;;;;;5073190;28;20036;-80
2022/07/12 08:12:02;;;;;;;1.67;1.10;;;10.20;99.90;;;;;;5072901;28;20099;-72
2022/07/12 08:14:29;;;;;;;1.65;0.98;;;10.20;99.90;;;;;;5073218;28;20060;-67
2022/07/12 08:16:56;;;;;;;2.25;0.95;;;10.20;99.90;;;;;;5073272;28;20035;-67
2022/07/12 08:19:24;;;;;;;4.00;1.50;;;10.20;99.90;;;;;;5073185;28;20119;-67
2022/07/12 08:21:51;;;;;;;5.07;1.95;;;10.10;99.90;;;;;;5073178;28;20021;-67
2022/07/12 08:24:18;;;;;;;3.00;1.77;;;10.10;99.90;;;;;;5073034;28;20021;-67
2022/07/12 08:26:45;;;;;;;1.75;1.15;;;10.00;99.90;;;;;;5073040;28;20158;-67
2022/07/12 08:29:13;;;;;;;1.52;1.25;;;10.00;99.90;;;;;;5073184;28;20021;-67
2022/07/12 08:31:40;;;;;;;1.33;0.75;;;9.90;99.90;;;;;;5073046;28;20021;-67
2022/07/12 08:34:07;;;;;;;1.40;0.77;;;9.90;99.90;;;;;;5072997;28;20107;-67
2022/07/12 08:36:34;;;;;;;4.97;1.13;;;9.90;99.90;;;;;;5073009;28;20020;-67
2022/07/12 08:39:02;;;;;;;3.55;1.30;;;9.90;99.90;;;;;;5072939;28;20032;-67
2022/07/12 08:41:29;;;;;;;6.10;1.13;;;9.90;99.90;;;;;;5073191;28;20028;-67
2022/07/12 08:43:57;;;;;;;1.30;0.98;;;9.90;99.90;;;;;;5072803;28;20066;-67
2022/07/12 08:46:24;;;;;;;3.55;1.40;;;10.00;99.90;;;;;;5073091;28;20043;-67
2022/07/12 08:48:51;;;;;;;1.77;1.00;;;10.00;99.90;;;;;;5072898;28;20512;-67
2022/07/12 08:51:22;;;;;;;2.38;1.65;;;10.00;99.90;;;;;;5054914;28;20079;-67
2022/07/12 08:54:07;;;;;;;1.85;1.15;;;10.00;99.90;;;;;;5072839;28;20070;-67
2022/07/12 08:56:37;;;;;;;1.88;0.90;;;10.00;99.90;;;;;;5072560;28;20032;-69
2022/07/12 08:59:11;;;;;;;1.95;0.90;;;10.00;99.90;;;;;;5072658;28;20395;-67
2022/07/12 09:01:45;;;;;;;1.70;0.60;;;10.00;99.90;;;;;;5072546;28;20048;-67
2022/07/12 09:04:24;;;;;;;2.58;0.65;;;10.00;99.90;;;;;;5072648;28;20386;-67
2022/07/12 09:06:52;;;;;;;7.32;4.32;;;9.90;99.90;;;;;;5072743;28;20029;-78
2022/07/12 09:09:37;;;;;;;166.68;91.80;;;9.70;99.90;;;;;;5072623;28;20051;-80
2022/07/12 09:12:05;;;;;;;343.73;210.73;;;9.70;99.90;;;;;;5072537;28;20020;-67
2022/07/12 09:14:32;;;;;;;203.93;123.90;;;9.70;99.90;;;;;;5072508;28;20031;-68
2022/07/12 09:17:09;;;;;;;94.63;50.25;;;9.80;99.90;;;;;;5072634;28;20487;-67
2022/07/12 09:19:54;;;;;;;19.98;12.10;;;9.80;99.90;;;;;;5072737;28;20053;-67
2022/07/12 09:22:21;;;;;;;5.05;3.00;;;9.80;99.90;;;;;;5073345;28;20024;-67
2022/07/12 09:24:48;;;;;;;1.80;1.00;;;9.80;99.90;;;;;;5076251;28;20023;-67
2022/07/12 09:27:16;;;;;;;1.00;0.70;;;9.80;99.90;;;;;;5076087;28;20490;-68
2022/07/12 09:29:50;;;;;;;2.05;1.30;;;9.80;99.90;;;;;;5075881;28;20371;-68
2022/07/12 09:37:50;;;;;;;5.00;2.90;;;9.80;99.90;;;;;;5076026;28;20525;-67
2022/07/12 09:40:18;;;;;;;6.57;3.35;;;9.80;99.90;;;;;;5075897;28;20035;-68
2022/07/12 09:42:45;;;;;;;4.60;3.33;;;9.70;99.90;;;;;;5075617;28;20090;-67
2022/07/12 09:45:13;;;;;;;6.05;3.72;;;9.70;99.90;;;;;;5075845;28;20107;-68
2022/07/12 09:47:43;;;;;;;5.80;3.22;;;9.70;99.90;;;;;;5075566;28;20099;-68
2022/07/12 09:50:13;;;;;;;4.28;2.97;;;9.80;99.90;;;;;;5075752;28;20378;-81
2022/07/12 09:52:44;;;;;;;3.47;1.60;;;9.80;99.90;;;;;;5075461;28;20451;-68
2022/07/12 09:55:15;;;;;;;1.20;1.00;;;9.80;99.90;;;;;;5057772;28;20032;-68
2022/07/12 09:57:44;;;;;;;2.00;1.30;;;9.80;99.90;;;;;;5075342;28;20040;-68
2022/07/12 10:00:12;;;;;;;3.90;0.90;;;9.80;99.90;;;;;;5075166;28;20465;-81
2022/07/12 10:02:41;;;;;;;1.48;1.10;;;9.80;99.90;;;;;;5075385;28;20410;-68
2022/07/12 10:05:10;;;;;;;3.10;1.90;;;9.80;99.90;;;;;;5075536;28;20027;-68
2022/07/12 10:07:40;;;;;;;3.42;2.40;;;9.80;99.90;;;;;;5075558;28;20082;-81
2022/07/12 10:10:09;;;;;;;5.28;2.38;;;9.70;99.90;;;;;;5075305;28;20540;-80
2022/07/12 10:12:37;;;;;;;4.75;2.83;;;9.70;99.90;;;;;;5075612;28;20056;-73
2022/07/12 10:15:09;;;;;;;5.95;2.38;;;9.70;99.90;;;;;;5075319;28;20024;-68
2022/07/12 10:17:37;;;;;;;3.72;2.13;;;9.70;99.90;;;;;;5075358;28;20036;-81
2022/07/12 10:20:22;;;;;;;2.38;1.83;;;9.60;99.90;;;;;;5075062;28;20029;-68
2022/07/12 10:23:09;;;;;;;5.15;2.13;;;9.60;99.90;;;;;;5074833;28;20024;-68
2022/07/12 10:25:37;;;;;;;4.10;2.08;;;9.50;99.90;;;;;;5057655;28;20032;-68
2022/07/12 10:28:04;;;;;;;3.55;1.90;;;9.50;99.90;;;;;;5074511;28;20025;-68
2022/07/12 10:30:41;;;;;;;3.58;2.22;;;9.50;99.90;;;;;;5066323;28;20490;-69
2022/07/12 10:33:24;;;;;;;3.25;2.00;;;9.40;99.90;;;;;;5057559;28;20064;-80
2022/07/12 10:36:09;;;;;;;3.45;1.98;;;9.30;99.90;;;;;;5054617;28;20036;-79
2022/07/12 10:38:37;;;;;;;2.13;1.55;;;9.30;99.90;;;;;;5054938;28;20383;-80
2022/07/12 10:41:23;;;;;;;2.40;1.90;;;9.30;99.90;;;;;;5053597;28;20044;-68
2022/07/12 10:44:05;;;;;;;;;;;9.30;99.90;;;;;;5054033;28;20025;-68
2022/07/12 10:46:37;;;;;;;2.60;1.50;;;9.30;99.90;;;;;;5056160;28;19905;-68
2022/07/12 10:49:26;;;;;;;2.97;1.48;;;9.30;99.90;;;;;;5053533;28;20387;-73
2022/07/12 10:52:13;;;;;;;1.88;1.27;;;9.30;99.90;;;;;;5053428;28;20052;-80
2022/07/12 10:54:59;;;;;;;1.80;1.30;;;9.30;99.90;;;;;;5053331;28;20017;-69
2022/07/12 10:57:49;;;;;;;4.57;1.58;;;9.30;99.90;;;;;;5051822;28;20064;-81
2022/07/12 11:00:17;;;;;;;2.42;1.20;;;9.40;99.90;;;;;;5052985;28;20032;-80
2022/07/12 11:02:44;;;;;;;2.42;1.55;;;9.40;99.90;;;;;;5053426;28;20563;-68
2022/07/12 11:05:12;;;;;;;2.95;1.30;;;9.50;99.90;;;;;;5055132;28;20387;-74
2022/07/12 11:07:40;;;;;;;3.05;1.40;;;9.50;99.90;;;;;;5053307;28;20032;-68
2022/07/12 11:10:07;;;;;;;1.98;1.25;;;9.50;99.90;;;;;;5053169;28;20013;-69
2022/07/12 11:12:35;;;;;;;1.80;1.13;;;9.50;99.90;;;;;;5052176;28;20040;-68
2022/07/12 11:15:04;;;;;;;2.63;1.58;;;9.50;99.90;;;;;;5052950;28;20021;-68
2022/07/12 11:17:32;;;;;;;2.63;1.30;;;9.50;99.90;;;;;;5052419;28;20033;-72
2022/07/12 11:20:13;;;;;;;1.75;1.40;;;9.60;99.90;;;;;;5052952;28;20492;-68
2022/07/12 11:22:42;;;;;;;2.17;1.70;;;9.50;99.90;;;;;;5052652;28;20099;-80
2022/07/12 11:25:13;;;;;;;3.45;1.38;;;9.60;99.90;;;;;;5052925;28;20023;-68
2022/07/12 11:27:41;;;;;;;5.18;1.50;;;9.50;99.90;;;;;;5055667;28;20021;-68
2022/07/12 11:30:09;;;;;;;3.35;2.13;;;9.50;99.90;;;;;;5052921;28;20071;-68
2022/07/12 11:32:37;;;;;;;1.83;1.17;;;9.50;99.90;;;;;;5052551;28;20044;-68
2022/07/12 11:35:18;;;;;;;2.30;1.50;;;9.50;99.90;;;;;;5059009;28;20078;-68
2022/07/12 11:37:54;;;;;;;1.75;1.52;;;9.40;99.90;;;;;;5066480;28;20037;-80
2022/07/12 11:40:27;;;;;;;5.85;2.83;;;9.40;99.90;;;;;;5067751;28;20088;-78
2022/07/12 11:42:58;;;;;;;4.00;3.03;;;9.40;99.90;;;;;;5054638;28;20053;-67
2022/07/12 11:45:30;;;;;;;8.45;5.68;;;9.40;99.90;;;;;;5069657;28;20012;-68
2022/07/12 11:48:01;;;;;;;4.65;2.60;;;9.40;99.90;;;;;;5050365;28;20013;-80
2022/07/12 11:50:30;;;;;;;2.63;2.30;;;9.40;99.90;;;;;;5070959;28;20020;-67
2022/07/12 11:52:58;;;;;;;4.28;3.35;;;9.40;99.90;;;;;;5069617;28;20020;-68
2022/07/12 11:55:25;;;;;;;4.10;2.22;;;9.40;99.90;;;;;;5071748;28;20025;-67
2022/07/12 11:58:05;;;;;;;1.90;1.38;;;9.40;99.90;;;;;;5071267;28;20028;-67
2022/07/12 12:00:32;;;;;;;6.90;1.88;;;9.40;99.90;;;;;;5072163;28;20044;-67
2022/07/12 12:02:59;;;;;;;2.72;1.52;;;9.50;99.90;;;;;;5067658;28;20024;-80
2022/07/12 12:05:27;;;;;;;2.33;1.45;;;9.50;99.90;;;;;;5070630;28;20101;-68
2022/07/12 12:07:54;;;;;;;2.20;1.30;;;9.50;99.90;;;;;;5069279;28;20055;-67
2022/07/12 12:10:21;;;;;;;4.90;1.55;;;9.50;99.90;;;;;;5068898;28;20024;-67
2022/07/12 12:12:56;;;;;;;2.30;1.67;;;9.50;99.90;;;;;;5071230;28;20028;-67
2022/07/12 12:15:26;;;;;;;1.53;1.07;;;9.50;99.90;;;;;;5070033;28;20548;-67
2022/07/12 12:18:08;;;;;;;1.45;1.17;;;9.50;99.90;;;;;;5072275;28;20289;-81
2022/07/12 12:20:41;;;;;;;2.28;1.65;;;9.50;99.90;;;;;;5069419;28;20111;-72
2022/07/12 12:23:19;;;;;;;4.57;1.45;;;9.50;99.90;;;;;;5069143;28;20017;-67
2022/07/12 12:25:47;;;;;;;2.88;1.15;;;9.50;99.90;;;;;;5068948;28;20025;-69
2022/07/12 12:28:14;;;;;;;2.38;1.38;;;9.50;99.90;;;;;;5070180;28;20467;-67
2022/07/12 12:30:59;;;;;;;3.45;1.08;;;9.50;99.90;;;;;;5068952;28;20462;-67
2022/07/12 12:33:37;;;;;;;3.80;1.48;;;9.50;99.90;;;;;;5071671;28;20054;-67
2022/07/12 12:36:23;;;;;;;4.63;1.25;;;9.40;99.90;;;;;;5069765;28;20024;-68
2022/07/12 12:38:56;;;;;;;7.15;1.40;;;9.40;99.90;;;;;;5069588;28;20483;-66
2022/07/12 12:41:26;;;;;;;1.45;1.15;;;9.30;99.90;;;;;;5069649;28;20390;-67
2022/07/12 12:44:02;;;;;;;1.80;1.20;;;9.30;99.90;;;;;;5071906;28;20020;-67
2022/07/12 12:47:30;;;;;;;3.33;1.60;;;9.30;99.90;;;;;;5068520;28;20028;-67
2022/07/12 12:49:48;;;;;;;1.77;1.08;;;9.30;99.90;;;;;;5066404;28;20118;-66
2022/07/12 12:52:16;;;;;;;1.90;1.50;;;9.20;99.90;;;;;;5070382;28;20028;-67
2022/07/12 12:54:44;;;;;;;2.65;1.42;;;9.20;99.90;;;;;;5069830;28;20031;-67
2022/07/12 12:57:12;;;;;;;2.13;1.70;;;9.20;99.90;;;;;;5073316;28;20390;-75
2022/07/12 12:59:40;;;;;;;3.63;2.35;;;9.20;99.90;;;;;;5075303;28;20020;-67
2022/07/12 13:02:08;;;;;;;3.00;1.80;;;9.20;99.90;;;;;;5065881;28;20134;-67
2022/07/12 13:04:37;;;;;;;1.90;1.70;;;9.20;99.90;;;;;;5056373;28;20396;-67
2022/07/12 13:07:06;;;;;;;2.63;1.70;;;9.20;99.90;;;;;;5055247;28;20040;-67
2022/07/12 13:09:34;;;;;;;2.80;1.90;;;9.10;99.90;;;;;;5055998;28;20025;-67
2022/07/12 13:12:01;;;;;;;2.05;1.55;;;9.10;99.90;;;;;;5056275;28;20025;-67
2022/07/12 13:14:28;;;;;;;2.30;1.60;;;9.10;99.90;;;;;;5056050;28;20052;-67